createdAt,value
2023-02-01T00:00:35.545Z,2.49
2023-02-01T00:05:34.612Z,2.69
2023-02-01T00:10:33.957Z,2.72
2023-02-01T00:15:35.389Z,2.67
2023-02-01T00:20:36.246Z,2.79
2023-02-01T00:25:37.032Z,2.58
2023-02-01T00:30:38.930Z,2.66
2023-02-01T00:35:40.217Z,2.67
2023-02-01T00:40:39.913Z,2.67
2023-02-01T00:45:41.125Z,2.58
2023-02-01T00:50:43.227Z,2.48
2023-02-01T00:55:53.213Z,2.43
2023-02-01T01:01:14.290Z,2.65
2023-02-01T01:06:18.719Z,2.39
2023-02-01T01:11:21.750Z,2.25
2023-02-01T01:16:25.322Z,2.11
2023-02-01T01:21:24.599Z,2.27
2023-02-01T01:26:28.695Z,2.05
2023-02-01T01:31:34.353Z,2.43
2023-02-01T01:36:36.958Z,2.16
2023-02-01T01:41:36.213Z,2.13
2023-02-01T01:46:45.819Z,2.37
2023-02-01T01:51:52.712Z,2.24
2023-02-01T01:56:54.385Z,2.32
2023-02-01T02:01:54.712Z,2.04
2023-02-01T02:07:30.467Z,2.37
2023-02-01T02:12:30.457Z,2.21
2023-02-01T02:17:59.212Z,2.16
2023-02-01T02:23:28.718Z,2.28
2023-02-01T02:28:48.153Z,2.31
2023-02-01T02:34:15.794Z,2.38
2023-02-01T02:39:40.285Z,2.35
2023-02-01T02:45:39.169Z,1.95
2023-02-01T02:51:09.507Z,2.12
2023-02-01T02:56:33.097Z,2.35
2023-02-01T03:01:54.458Z,2.12
2023-02-01T03:06:55.027Z,2.06
2023-02-01T03:12:18.243Z,2.14
2023-02-01T03:17:22.975Z,1.79
2023-02-01T03:22:24.859Z,2.14
2023-02-01T03:27:38.920Z,2.32
2023-02-01T03:33:00.305Z,2.09
2023-02-01T03:38:18.453Z,2.17
2023-02-01T03:43:19.204Z,2.28
2023-02-01T03:48:20.906Z,1.98
2023-02-01T03:53:24.688Z,2.09
2023-02-01T03:58:24.593Z,2.02
2023-02-01T04:03:27.507Z,2.29
2023-02-01T04:08:25.628Z,2.34
2023-02-01T04:13:26.899Z,1.98
2023-02-01T04:18:26.145Z,2.14
2023-02-01T04:23:26.675Z,2.24
2023-02-01T04:28:25.814Z,1.93
2023-02-01T04:33:24.609Z,2.31
2023-02-01T04:38:30.502Z,2.18
2023-02-01T04:43:41.665Z,2.26
2023-02-01T04:49:08.315Z,2.40
2023-02-01T04:54:09.019Z,1.92
2023-02-01T04:59:10.735Z,2.03
2023-02-01T05:04:13.331Z,2.21
2023-02-01T05:09:15.103Z,2.01
2023-02-01T05:14:17.963Z,1.84
2023-02-01T05:19:15.822Z,1.76
2023-02-01T05:24:23.043Z,2.03
2023-02-01T05:29:24.325Z,1.73
2023-02-01T05:34:22.714Z,1.78
2023-02-01T05:39:27.374Z,1.60
2023-02-01T05:44:38.283Z,1.57
2023-02-01T05:49:39.167Z,1.57
2023-02-01T05:54:40.345Z,1.93
2023-02-01T05:59:42.676Z,1.74
2023-02-01T06:04:46.211Z,1.92
2023-02-01T06:09:45.071Z,2.10
2023-02-01T06:14:44.467Z,1.76
2023-02-01T06:19:46.447Z,1.83
2023-02-01T06:24:46.511Z,1.82
2023-02-01T06:29:46.354Z,1.88
2023-02-01T06:34:49.078Z,1.91
2023-02-01T06:39:51.627Z,1.92
2023-02-01T06:44:52.991Z,1.91
2023-02-01T06:50:00.741Z,2.12
2023-02-01T06:55:00.681Z,2.18
2023-02-01T07:00:00.872Z,2.43
2023-02-01T07:05:01.193Z,2.51
2023-02-01T07:09:59.006Z,2.45
2023-02-01T07:15:04.564Z,2.47
2023-02-01T07:20:05.954Z,2.39
2023-02-01T07:25:07.506Z,2.48
2023-02-01T07:30:07.071Z,2.50
2023-02-01T07:35:05.987Z,2.50
2023-02-01T07:40:07.923Z,2.70
2023-02-01T07:45:20.473Z,2.69
2023-02-01T07:50:22.260Z,2.27
2023-02-01T07:55:22.281Z,2.52
2023-02-01T08:00:44.295Z,2.55
2023-02-01T08:05:44.322Z,2.70
2023-02-01T08:10:43.633Z,2.80
2023-02-01T08:15:43.886Z,2.76
2023-02-01T08:20:44.800Z,2.80
2023-02-01T08:25:43.823Z,3.03
2023-02-01T08:30:46.440Z,3.23
2023-02-01T08:35:45.147Z,3.26
2023-02-01T08:40:47.437Z,3.64
2023-02-01T08:46:01.536Z,3.51
2023-02-01T08:51:04.388Z,3.78
2023-02-01T08:56:06.374Z,3.68
2023-02-01T09:01:10.256Z,4.06
2023-02-01T09:06:11.989Z,4.48
2023-02-01T09:11:20.619Z,4.54
2023-02-01T09:16:24.036Z,4.67
2023-02-01T09:21:24.011Z,4.50
2023-02-01T09:26:31.387Z,4.52
2023-02-01T09:31:34.015Z,4.74
2023-02-01T09:36:38.345Z,4.84
2023-02-01T09:42:07.631Z,5.32
2023-02-01T09:47:08.004Z,4.96
2023-02-01T09:52:09.675Z,4.96
2023-02-01T09:57:27.978Z,4.98
2023-02-01T10:02:28.494Z,5.24
2023-02-01T10:07:39.381Z,5.65
2023-02-01T10:13:15.936Z,5.66
2023-02-01T10:18:27.301Z,5.76
2023-02-01T10:24:01.205Z,5.81
2023-02-01T10:29:19.319Z,5.83
2023-02-01T10:34:29.682Z,6.29
2023-02-01T10:39:29.110Z,6.09
2023-02-01T10:44:29.297Z,6.22
2023-02-01T10:49:45.051Z,6.47
2023-02-01T10:54:46.630Z,6.72
2023-02-01T10:59:46.025Z,6.67
2023-02-01T11:04:45.561Z,6.84
2023-02-01T11:09:56.438Z,6.89
2023-02-01T11:15:03.494Z,6.66
2023-02-01T11:20:10.600Z,6.74
2023-02-01T11:25:11.550Z,6.63
2023-02-01T11:30:20.814Z,7.14
2023-02-01T11:35:23.007Z,6.90
2023-02-01T11:40:28.775Z,6.87
2023-02-01T11:45:30.008Z,7.14
2023-02-01T11:50:35.732Z,7.25
2023-02-01T11:56:03.029Z,7.62
2023-02-01T12:01:09.808Z,7.72
2023-02-01T12:06:41.355Z,7.56
2023-02-01T12:11:47.444Z,7.76
2023-02-01T12:17:08.415Z,7.76
2023-02-01T12:22:15.177Z,7.93
2023-02-01T12:27:57.889Z,7.68
2023-02-01T12:33:07.991Z,7.80
2023-02-01T12:38:41.275Z,8.15
2023-02-01T12:43:59.314Z,8.10
2023-02-01T12:49:18.952Z,8.03
2023-02-01T12:54:23.382Z,8.22
2023-02-01T12:59:27.343Z,8.00
2023-02-01T13:04:39.655Z,8.00
2023-02-01T13:10:00.400Z,7.99
2023-02-01T13:15:07.739Z,8.19
2023-02-01T13:20:23.170Z,8.07
2023-02-01T13:25:37.619Z,8.47
2023-02-01T13:30:46.358Z,8.47
2023-02-01T13:36:11.209Z,8.53
2023-02-01T13:41:13.083Z,8.60
2023-02-01T13:46:18.168Z,8.48
2023-02-01T13:51:17.273Z,8.39
2023-02-01T13:56:20.699Z,8.36
2023-02-01T14:01:25.420Z,8.69
2023-02-01T14:06:35.482Z,8.73
2023-02-01T14:11:48.970Z,8.44
2023-02-01T14:16:57.679Z,8.66
2023-02-01T14:22:00.062Z,8.37
2023-02-01T14:27:01.659Z,8.40
2023-02-01T14:32:22.149Z,8.54
2023-02-01T14:37:23.884Z,8.47
2023-02-01T14:42:43.319Z,8.19
2023-02-01T14:47:43.767Z,8.28
2023-02-01T14:52:54.765Z,8.23
2023-02-01T14:57:59.481Z,8.12
2023-02-01T15:03:26.762Z,7.97
2023-02-01T15:14:04.202Z,7.68
2023-02-01T15:19:12.097Z,7.58
2023-02-01T15:24:24.730Z,7.50
2023-02-01T15:29:36.746Z,7.48
2023-02-01T15:34:52.868Z,7.34
2023-02-01T15:40:11.856Z,7.50
2023-02-01T15:45:31.580Z,7.11
2023-02-01T15:50:32.945Z,7.19
2023-02-01T15:55:44.843Z,6.86
2023-02-01T16:00:54.132Z,6.86
2023-02-01T16:06:04.516Z,6.75
2023-02-01T16:11:22.964Z,6.60
2023-02-01T16:16:28.389Z,6.58
2023-02-01T16:21:30.202Z,6.35
2023-02-01T16:26:34.105Z,6.34
2023-02-01T16:31:39.234Z,6.07
2023-02-01T16:36:37.174Z,6.04
2023-02-01T16:41:35.105Z,5.89
2023-02-01T16:46:35.596Z,5.98
2023-02-01T16:51:44.034Z,5.85
2023-02-01T16:56:46.026Z,5.77
2023-02-01T17:01:44.868Z,5.54
2023-02-01T17:06:43.374Z,5.59
2023-02-01T17:11:42.296Z,5.67
2023-02-01T17:16:43.467Z,5.57
2023-02-01T17:21:47.775Z,5.50
2023-02-01T17:26:45.469Z,5.79
2023-02-01T17:31:49.253Z,5.46
2023-02-01T17:36:48.804Z,5.55
2023-02-01T17:41:49.676Z,5.47
2023-02-01T17:46:48.005Z,5.12
2023-02-01T17:51:49.601Z,5.18
2023-02-01T17:56:54.982Z,5.17
2023-02-01T18:02:01.190Z,5.18
2023-02-01T18:07:01.900Z,5.18
2023-02-01T18:12:00.033Z,4.87
2023-02-01T18:16:59.665Z,5.08
2023-02-01T18:21:58.525Z,4.83
2023-02-01T18:27:00.098Z,4.84
2023-02-01T18:32:03.529Z,4.75
2023-02-01T18:37:03.302Z,4.72
2023-02-01T18:42:00.978Z,4.62
2023-02-01T18:47:03.159Z,4.61
2023-02-01T18:52:03.969Z,4.68
2023-02-01T18:57:06.663Z,4.55
2023-02-01T19:02:10.442Z,4.40
2023-02-01T19:07:09.822Z,4.21
2023-02-01T19:12:10.617Z,4.29
2023-02-01T19:17:09.882Z,4.02
2023-02-01T19:22:09.775Z,3.99
2023-02-01T19:27:12.745Z,4.08
2023-02-01T19:32:18.382Z,3.79
2023-02-01T19:37:20.148Z,3.76
2023-02-01T19:42:20.931Z,3.76
2023-02-01T19:47:24.877Z,4.00
2023-02-01T19:52:22.663Z,3.73
2023-02-01T19:57:20.095Z,3.83
2023-02-01T20:02:16.752Z,3.74
2023-02-01T20:07:17.811Z,4.14
2023-02-01T20:12:16.488Z,4.05
2023-02-01T20:17:16.531Z,3.86
2023-02-01T20:22:15.876Z,3.82
2023-02-01T20:27:18.054Z,3.72
2023-02-01T20:32:27.403Z,3.73
2023-02-01T20:37:25.842Z,3.70
2023-02-01T20:42:48.676Z,3.75
2023-02-01T20:47:57.496Z,3.72
2023-02-01T20:54:51.128Z,3.65
2023-02-01T20:59:54.034Z,3.81
2023-02-01T21:05:13.254Z,3.63
2023-02-01T21:10:14.372Z,3.91
2023-02-01T21:15:28.494Z,4.03
2023-02-01T21:20:34.211Z,4.13
2023-02-01T21:25:32.057Z,4.50
2023-02-01T21:30:31.846Z,4.39
2023-02-01T21:35:29.969Z,4.40
2023-02-01T21:40:27.854Z,4.54
2023-02-01T21:45:26.994Z,4.61
2023-02-01T21:50:28.336Z,4.51
2023-02-01T21:55:31.509Z,4.79
2023-02-01T22:00:32.045Z,4.63
2023-02-01T22:05:31.941Z,4.88
2023-02-01T22:10:30.116Z,4.77
2023-02-01T22:15:31.540Z,4.69
2023-02-01T22:20:29.115Z,4.64
2023-02-01T22:25:28.787Z,4.53
2023-02-01T22:30:28.656Z,4.60
2023-02-01T22:35:28.076Z,4.46
2023-02-01T22:40:26.714Z,4.52
2023-02-01T22:45:29.192Z,4.76
2023-02-01T22:50:27.727Z,4.58
2023-02-01T22:55:27.547Z,4.35
2023-02-01T23:00:52.363Z,4.62
2023-02-01T23:05:51.213Z,4.47
2023-02-01T23:10:50.574Z,4.47
2023-02-01T23:15:52.050Z,4.46
2023-02-01T23:20:50.683Z,4.56
2023-02-01T23:25:51.814Z,4.36
2023-02-01T23:30:52.078Z,4.51
2023-02-01T23:36:00.794Z,4.62
2023-02-01T23:41:04.042Z,4.56
2023-02-01T23:46:01.919Z,4.59
2023-02-01T23:51:01.387Z,4.86
2023-02-01T23:56:00.266Z,4.71
